This is the latest recevied weather packets stored in our database for station/object AA4OM-2. If no packets are shown the sender has not sent any weather packets the latest 10 day(s).
| Time | Temp. | Humidity | Pressure | Rain* | Wind** | Luminosity | Snow |
|---|---|---|---|---|---|---|---|
| 1777255950 | 16.11° C | 88% | 1013.2 hPa | 0 mm | - | 0 W/m² | - |
| 1777255646 | 16.11° C | 87% | 1013.3 hPa | 0 mm | - | 0 W/m² | - |
| 1777231394 | 28.33° C | 41% | 1013.4 hPa | 0 mm | - | 757 W/m² | - |
| 1777230480 | 27.78° C | 40% | 1013.1 hPa | 0 mm | - | 981 W/m² | - |
| 1777229874 | 27.22° C | 41% | 1013.6 hPa | 0 mm | - | 943 W/m² | - |
| 1777225021 | 26.67° C | 50% | 1014.5 hPa | 0 mm | - | 1062 W/m² | - |
| 1777224414 | 26.11° C | 51% | 1014.5 hPa | 0 mm | - | 955 W/m² | - |
| 1777223807 | 26.11° C | 45% | 1014.5 hPa | 0 mm | - | 1022 W/m² | - |
| 1777223200 | 26.67° C | 48% | 1014.5 hPa | 0 mm | - | 1012 W/m² | - |
| 1777222898 | 26.67° C | 46% | 1014.3 hPa | 0 mm | - | 961 W/m² | - |
| 1777221691 | 26.11° C | 48% | 1014.5 hPa | 0 mm | - | 900 W/m² | - |
| 1777221387 | 26.11° C | 49% | 1014.4 hPa | 0 mm | - | 966 W/m² | - |
| 1777220170 | 26.11° C | 51% | 1014.6 hPa | 0 mm | - | 920 W/m² | - |
| 1777219867 | 26.11° C | 57% | 1014.6 hPa | 0 mm | - | 915 W/m² | - |
| 1777219262 | 25° C | 55% | 1014.9 hPa | 0 mm | - | 858 W/m² | - |
| 1777218957 | 25° C | 52% | 1014.8 hPa | 0 mm | - | 842 W/m² | - |
| 1777217437 | 24.44° C | 59% | 1014.9 hPa | 0 mm | - | 663 W/m² | - |
| 1777216830 | 23.89° C | 60% | 1014.9 hPa | 0 mm | - | 722 W/m² | - |
| 1777216527 | 23.89° C | 60% | 1014.7 hPa | 0 mm | - | 128 W/m² | - |
| 1777215921 | 23.89° C | 64% | 1014.8 hPa | 0 mm | - | 194 W/m² | - |
| 1777215617 | 24.44° C | 61% | 1014.7 hPa | 0 mm | - | 197 W/m² | - |
| 1777212578 | 20.56° C | 71% | 1014.7 hPa | 0 mm | - | 197 W/m² | - |
| 1777212276 | 20.56° C | 73% | 1014.6 hPa | 0 mm | - | 93 W/m² | - |
| 1777209543 | 16.67° C | 91% | 1014.3 hPa | 0 mm | - | 101 W/m² | - |
| 1777208935 | 15.56° C | 99% | 1014.2 hPa | 0 mm | - | 45 W/m² | - |
* Rain latest hour (hover to see other rain measurements)
** Current wind speed in m/s (hover to see current wind gust speed)